Time;durP1;ratioP1;P1;durP2;ratioP2;P2;SDS_P1;SDS_P2;PMS_P1;PMS_P2;Temp;Humidity;BMP_temperature;BMP_pressure;BME280_temperature;BME280_humidity;BME280_pressure;Samples;Min_cycle;Max_cycle;Signal;HPM_P1;HPM_P2
2023/09/29 00:00:46;;;;;;;27.05;14.32;;;;;;;12.13;100.00;100397.00;5158323;27;20323;-61
2023/09/29 00:03:12;;;;;;;33.40;13.82;;;;;;;12.15;100.00;100402.94;5158033;27;20443;-60
2023/09/29 00:05:38;;;;;;;26.48;14.10;;;;;;;12.19;100.00;100401.09;5157182;27;20051;-63
2023/09/29 00:08:06;;;;;;;23.35;14.93;;;;;;;12.16;100.00;100404.56;5158255;27;20143;-62
2023/09/29 00:10:34;;;;;;;27.05;14.95;;;;;;;12.12;100.00;100387.13;5157965;27;20050;-61
2023/09/29 00:13:00;;;;;;;24.35;13.25;;;;;;;12.08;100.00;100388.16;5158270;27;20046;-60
2023/09/29 00:15:26;;;;;;;23.10;13.32;;;;;;;12.07;100.00;100379.13;5157803;27;20442;-62
2023/09/29 00:17:52;;;;;;;22.65;13.27;;;;;;;12.05;100.00;100391.59;5158222;27;20050;-62
2023/09/29 00:20:23;;;;;;;25.17;12.98;;;;;;;11.99;100.00;100388.28;5157828;27;20064;-61
2023/09/29 00:22:49;;;;;;;26.73;12.90;;;;;;;12.01;100.00;100380.50;5158221;27;20097;-61
2023/09/29 00:25:16;;;;;;;28.73;14.18;;;;;;;11.99;100.00;100391.03;5157647;27;20121;-62
2023/09/29 00:27:42;;;;;;;26.13;13.65;;;;;;;11.99;100.00;100388.28;5157947;27;20043;-62
2023/09/29 00:30:09;;;;;;;22.80;13.60;;;;;;;11.93;100.00;100393.22;5157912;27;20051;-62
2023/09/29 00:32:35;;;;;;;27.60;13.93;;;;;;;11.88;100.00;100376.94;5157805;27;20058;-61
2023/09/29 00:35:02;;;;;;;27.27;13.75;;;;;;;11.89;100.00;100377.75;5157922;27;20320;-61
2023/09/29 00:37:29;;;;;;;26.75;13.38;;;;;;;11.88;100.00;100379.69;5157670;27;20074;-63
2023/09/29 00:39:55;;;;;;;30.63;14.23;;;;;;;11.88;100.00;100378.91;5157876;27;20046;-60
2023/09/29 00:42:22;;;;;;;20.23;13.85;;;;;;;11.91;100.00;100375.47;5157460;27;20054;-62
2023/09/29 00:44:48;;;;;;;27.83;15.57;;;;;;;11.94;100.00;100374.78;5157802;27;20059;-63
2023/09/29 00:47:15;;;;;;;25.13;13.93;;;;;;;11.94;100.00;100374.78;5157518;27;20047;-63
2023/09/29 00:49:42;;;;;;;21.65;12.80;;;;;;;11.91;100.00;100380.97;5157846;27;20074;-61
2023/09/29 00:52:08;;;;;;;22.30;14.07;;;;;;;11.91;100.00;100376.25;5157416;27;20058;-61
2023/09/29 00:54:35;;;;;;;30.35;15.77;;;;;;;11.91;100.00;100386.47;5157778;27;20085;-63
2023/09/29 00:57:05;;;;;;;25.52;14.77;;;;;;;11.90;100.00;100384.88;5157273;27;20129;-63
2023/09/29 00:59:32;;;;;;;27.58;14.02;;;;;;;11.88;100.00;100389.88;5157508;27;20058;-62
2023/09/29 01:02:02;;;;;;;25.17;14.30;;;;;;;11.83;100.00;100376.34;5157582;27;20123;-63
2023/09/29 01:04:29;;;;;;;26.10;15.18;;;;;;;11.79;100.00;100378.97;5157092;27;20142;-60
2023/09/29 01:06:56;;;;;;;28.48;16.13;;;;;;;11.75;100.00;100362.38;5157135;27;20050;-62
2023/09/29 01:09:22;;;;;;;25.10;15.20;;;;;;;11.77;100.00;100362.84;5157190;27;20410;-61
2023/09/29 01:11:49;;;;;;;27.35;15.18;;;;;;;11.82;100.00;100361.00;5157384;27;20083;-60
2023/09/29 01:14:15;;;;;;;27.17;16.15;;;;;;;11.78;100.00;100364.44;5157073;27;20050;-61
2023/09/29 01:16:41;;;;;;;26.38;15.25;;;;;;;11.71;100.00;100372.44;5158516;27;20061;-60
2023/09/29 01:19:11;;;;;;;24.27;15.63;;;;;;;11.66;100.00;100366.38;5160523;27;20443;-62
2023/09/29 01:21:38;;;;;;;35.95;17.23;;;;;;;11.68;100.00;100369.59;5160998;27;20057;-62
2023/09/29 01:24:06;;;;;;;26.88;15.73;;;;;;;11.64;100.00;100368.69;5160808;27;20141;-63
2023/09/29 01:26:32;;;;;;;22.65;15.38;;;;;;;11.65;100.00;100362.03;5160645;27;20061;-62
2023/09/29 01:28:58;;;;;;;25.35;16.13;;;;;;;11.62;100.00;100360.78;5160763;27;20327;-60
2023/09/29 01:31:24;;;;;;;33.30;16.63;;;;;;;11.62;100.00;100363.50;5160336;27;20408;-62
2023/09/29 01:33:50;;;;;;;28.42;15.82;;;;;;;11.57;100.00;100354.72;5160761;27;20046;-63
2023/09/29 01:36:16;;;;;;;27.63;16.42;;;;;;;11.54;100.00;100362.50;5160399;27;20051;-63
2023/09/29 01:38:42;;;;;;;26.98;16.13;;;;;;;11.55;100.00;100350.34;5160709;27;20047;-62
2023/09/29 01:41:10;;;;;;;25.75;16.05;;;;;;;11.54;100.00;100326.78;5160264;27;20484;-63
2023/09/29 01:43:36;;;;;;;28.85;14.73;;;;;;;11.57;100.00;100328.06;5160668;27;20042;-60
2023/09/29 01:46:03;;;;;;;26.05;15.20;;;;;;;11.55;100.00;100335.81;5160131;27;20051;-62
2023/09/29 01:48:29;;;;;;;27.65;15.38;;;;;;;11.54;100.00;100337.78;5160569;27;20054;-60
2023/09/29 01:50:54;;;;;;;22.88;14.20;;;;;;;11.57;100.00;100346.47;5160042;27;20095;-60
2023/09/29 01:53:21;;;;;;;22.80;14.52;;;;;;;11.57;100.00;100351.97;5160281;27;20054;-61
2023/09/29 01:55:47;;;;;;;24.58;15.15;;;;;;;11.55;100.00;100355.06;5160064;27;20107;-62
2023/09/29 01:58:14;;;;;;;29.40;15.43;;;;;;;11.55;100.00;100347.59;5160156;27;20061;-62
2023/09/29 02:00:40;;;;;;;26.75;14.65;;;;;;;11.50;100.00;100347.84;5160228;27;20081;-63
2023/09/29 02:03:07;;;;;;;25.27;16.30;;;;;;;11.49;100.00;100328.94;5160015;27;20042;-62
2023/09/29 02:05:33;;;;;;;28.38;15.88;;;;;;;11.56;100.00;100329.19;5160151;27;20046;-63
2023/09/29 02:08:01;;;;;;;27.80;16.95;;;;;;;11.59;100.00;100324.94;5159871;27;20138;-63
2023/09/29 02:10:27;;;;;;;28.98;16.27;;;;;;;11.53;100.00;100325.19;5160105;27;20046;-61
2023/09/29 02:12:55;;;;;;;32.90;16.50;;;;;;;11.48;100.00;100322.66;5159670;27;20426;-63
2023/09/29 02:15:22;;;;;;;28.10;16.60;;;;;;;11.52;100.00;100314.53;5160214;27;20137;-63
2023/09/29 02:17:48;;;;;;;25.98;15.45;;;;;;;11.53;100.00;100327.16;5159636;27;20074;-62
2023/09/29 02:20:15;;;;;;;27.50;15.68;;;;;;;11.50;100.00;100333.31;5159844;27;20063;-62
2023/09/29 02:22:41;;;;;;;25.75;15.05;;;;;;;11.40;100.00;100333.78;5159821;27;20122;-63
2023/09/29 02:25:11;;;;;;;24.58;15.30;;;;;;;11.44;100.00;100324.50;5159606;27;20054;-60
2023/09/29 02:27:37;;;;;;;30.02;17.08;;;;;;;11.46;100.00;100318.66;5159314;27;20043;-63
2023/09/29 02:30:04;;;;;;;29.15;16.92;;;;;;;11.40;100.00;100309.06;5159576;27;20047;-63
2023/09/29 02:32:30;;;;;;;27.58;16.40;;;;;;;11.48;100.00;100308.13;5159516;27;20055;-62
2023/09/29 02:34:56;;;;;;;30.10;14.75;;;;;;;11.51;100.00;100321.19;5159447;27;20061;-63
2023/09/29 02:37:22;;;;;;;24.10;15.82;;;;;;;11.41;100.00;100316.94;5159752;27;20050;-61
2023/09/29 02:39:48;;;;;;;24.05;15.30;;;;;;;11.47;100.00;100306.53;5159312;27;20416;-61
2023/09/29 02:42:14;;;;;;;27.48;15.35;;;;;;;11.49;100.00;100299.53;5159701;27;20106;-60
2023/09/29 02:44:40;;;;;;;26.52;15.77;;;;;;;11.51;100.00;100307.44;5159036;27;20137;-61
2023/09/29 02:47:06;;;;;;;29.25;15.75;;;;;;;11.48;100.00;100310.88;5159595;27;20408;-62
2023/09/29 02:49:33;;;;;;;29.20;16.55;;;;;;;11.48;100.00;100321.88;5159174;27;20138;-62
2023/09/29 02:51:59;;;;;;;27.30;15.65;;;;;;;11.41;100.00;100329.88;5158988;27;20101;-62
2023/09/29 02:54:25;;;;;;;28.70;15.55;;;;;;;11.38;100.00;100330.56;5159284;27;20047;-63
2023/09/29 02:56:51;;;;;;;28.63;15.90;;;;;;;11.31;100.00;100342.09;5159204;27;20058;-62
2023/09/29 02:59:17;;;;;;;25.15;14.23;;;;;;;11.22;100.00;100338.66;5159334;27;20055;-61
2023/09/29 03:01:45;;;;;;;25.33;15.60;;;;;;;11.29;100.00;100325.16;5159062;27;20058;-63
2023/09/29 03:04:11;;;;;;;35.10;16.88;;;;;;;11.32;100.00;100322.53;5159134;27;20047;-62
2023/09/29 03:06:38;;;;;;;28.20;15.48;;;;;;;11.31;100.00;100314.66;5158854;27;20057;-61
2023/09/29 03:09:04;;;;;;;29.50;16.15;;;;;;;11.32;100.00;100328.03;5159152;27;20138;-61
2023/09/29 03:11:29;;;;;;;30.02;16.50;;;;;;;11.26;100.00;100320.34;5158787;27;20133;-62
2023/09/29 03:13:55;;;;;;;28.75;15.93;;;;;;;11.26;100.00;100310.19;5159155;27;20137;-61
2023/09/29 03:16:24;;;;;;;25.92;16.20;;;;;;;11.22;100.00;100311.19;5158654;27;20086;-62
2023/09/29 03:18:50;;;;;;;30.38;15.18;;;;;;;11.17;100.00;100322.41;5158861;27;20065;-63
2023/09/29 03:21:16;;;;;;;29.88;15.68;;;;;;;11.12;100.00;100314.38;5158964;27;20073;-61
2023/09/29 03:23:43;;;;;;;29.38;16.05;;;;;;;11.11;100.00;100316.34;5158535;27;20051;-63
2023/09/29 03:26:09;;;;;;;35.83;17.65;;;;;;;11.14;100.00;100298.38;5158763;27;20061;-62
2023/09/29 03:28:36;;;;;;;27.60;15.75;;;;;;;11.14;100.00;100292.91;5158493;27;20078;-62
2023/09/29 03:31:06;;;;;;;31.77;15.95;;;;;;;11.14;100.00;100288.22;5158690;27;20137;-60
2023/09/29 03:33:32;;;;;;;29.58;16.73;;;;;;;11.14;100.00;100288.22;5158459;27;20137;-60
2023/09/29 03:35:58;;;;;;;29.92;17.23;;;;;;;11.13;100.00;100285.78;5158688;27;20400;-61
2023/09/29 03:38:25;;;;;;;26.42;15.35;;;;;;;11.13;100.00;100280.31;5158115;27;20129;-62
2023/09/29 03:40:52;;;;;;;26.45;16.65;;;;;;;11.12;100.00;100287.72;5158074;27;20199;-60
2023/09/29 03:43:18;;;;;;;29.85;15.88;;;;;;;11.16;100.00;100277.69;5158278;27;20058;-60
2023/09/29 03:45:46;;;;;;;27.45;16.15;;;;;;;11.13;100.00;100267.41;5158433;27;20046;-60
2023/09/29 03:48:12;;;;;;;28.98;16.10;;;;;;;11.11;100.00;100268.88;5158541;27;20050;-61
2023/09/29 03:50:40;;;;;;;31.95;15.15;;;;;;;11.08;100.00;100284.88;5158357;27;20050;-61
2023/09/29 03:53:06;;;;;;;24.67;15.13;;;;;;;11.05;100.00;100290.25;5158460;27;20125;-61
2023/09/29 03:55:33;;;;;;;31.15;16.23;;;;;;;11.06;100.00;100286.34;5158249;27;20050;-63
2023/09/29 03:58:00;;;;;;;31.60;15.57;;;;;;;10.97;100.00;100285.66;5158142;27;20057;-63
2023/09/29 04:00:26;;;;;;;29.05;14.98;;;;;;;11.08;100.00;100275.84;5158119;27;20372;-62
2023/09/29 04:02:52;;;;;;;30.58;15.15;;;;;;;11.08;100.00;100278.59;5158424;27;20141;-62
2023/09/29 04:05:19;;;;;;;25.33;14.00;;;;;;;11.01;100.00;100270.91;5157858;27;20057;-62
2023/09/29 04:07:45;;;;;;;27.48;16.33;;;;;;;11.10;100.00;100261.81;5158466;27;20149;-63
2023/09/29 04:10:13;;;;;;;33.05;16.00;;;;;;;11.12;100.00;100278.72;5157830;27;20390;-60
2023/09/29 04:12:40;;;;;;;25.15;15.10;;;;;;;11.09;100.00;100280.19;5158304;27;20137;-60
2023/09/29 04:15:08;;;;;;;32.78;14.38;;;;;;;10.99;100.00;100286.13;5158055;27;20054;-62
2023/09/29 04:17:35;;;;;;;26.60;15.00;;;;;;;11.00;100.00;100280.31;5158026;27;20062;-61
2023/09/29 04:20:02;;;;;;;33.55;15.43;;;;;;;10.99;100.00;100289.66;5158087;27;20054;-63
2023/09/29 04:22:28;;;;;;;30.92;15.45;;;;;;;10.96;100.00;100282.13;5157935;27;20054;-61
2023/09/29 04:24:54;;;;;;;28.00;13.90;;;;;;;11.02;100.00;100280.75;5157969;27;20133;-62
2023/09/29 04:27:20;;;;;;;26.30;14.73;;;;;;;11.04;100.00;100280.41;5157774;27;20047;-63
2023/09/29 04:29:46;;;;;;;28.35;14.95;;;;;;;11.04;100.00;100288.66;5157999;27;20092;-60
2023/09/29 04:32:12;;;;;;;24.88;13.43;;;;;;;11.07;100.00;100277.78;5157414;27;20054;-61
2023/09/29 04:34:38;;;;;;;26.75;14.52;;;;;;;11.11;100.00;100275.16;5158043;27;20141;-60
2023/09/29 04:37:04;;;;;;;25.08;14.32;;;;;;;11.11;100.00;100277.91;5157413;27;20057;-61
2023/09/29 04:39:30;;;;;;;24.98;14.48;;;;;;;11.19;100.00;100274.25;5157796;27;20363;-63
2023/09/29 04:41:56;;;;;;;29.63;15.05;;;;;;;11.31;100.00;100281.69;5157250;27;20146;-62
2023/09/29 04:44:22;;;;;;;25.85;14.07;;;;;;;11.33;100.00;100284.91;5157538;27;20066;-63
2023/09/29 04:46:48;;;;;;;27.35;15.10;;;;;;;11.43;100.00;100281.72;5157408;27;20129;-62
2023/09/29 04:49:15;;;;;;;28.25;15.02;;;;;;;11.48;100.00;100292.47;5157369;27;20369;-60
2023/09/29 04:51:43;;;;;;;24.85;14.90;;;;;;;11.64;100.00;100297.28;5160266;27;20133;-60
2023/09/29 04:54:10;;;;;;;22.40;12.93;;;;;;;12.14;100.00;100307.06;5160705;27;20089;-62
2023/09/29 04:56:36;;;;;;;19.88;12.43;;;;;;;12.49;100.00;100343.03;5161186;27;20080;-60
2023/09/29 04:59:02;;;;;;;17.33;12.13;;;;;;;12.76;100.00;100366.22;5160646;27;20051;-63
2023/09/29 05:01:28;;;;;;;17.90;11.23;;;;;;;13.00;100.00;100384.59;5160936;27;20078;-63
2023/09/29 05:03:54;;;;;;;25.52;11.65;;;;;;;13.39;100.00;100360.88;5160616;27;20423;-63
2023/09/29 05:06:22;;;;;;;21.35;11.00;;;;;;;13.90;100.00;100282.97;5160934;27;20079;-63
2023/09/29 05:08:48;;;;;;;21.48;10.52;;;;;;;14.40;100.00;100093.66;5160478;27;20061;-62
2023/09/29 05:11:20;;;;;;;20.48;10.18;;;;;;;14.89;100.00;99800.25;5160794;27;20199;-61
2023/09/29 05:13:47;;;;;;;21.85;10.32;;;;;;;15.39;100.00;99527.22;5160799;27;20082;-62
2023/09/29 05:16:13;;;;;;;20.70;10.95;;;;;;;15.80;100.00;99252.56;5160407;27;20085;-61
2023/09/29 05:18:38;;;;;;;20.80;10.60;;;;;;;16.05;100.00;99141.88;5160763;27;20114;-62
2023/09/29 05:21:04;;;;;;;23.52;10.02;;;;;;;16.22;100.00;99031.16;5160563;27;20050;-62
2023/09/29 05:23:31;;;;;;;21.15;10.13;;;;;;;16.71;100.00;98998.72;5160444;27;20500;-61
2023/09/29 05:26:01;;;;;;;19.45;10.68;;;;;;;16.91;100.00;98976.03;5160277;27;20138;-60
2023/09/29 05:28:27;;;;;;;26.05;15.25;;;;;;;17.41;100.00;98978.22;5160512;27;20320;-63
2023/09/29 05:30:54;;;;;;;16.90;9.93;;;;;;;17.70;100.00;99002.78;5160130;27;20061;-62
2023/09/29 05:33:20;;;;;;;18.35;10.50;;;;;;;17.78;100.00;99009.81;5160565;27;20047;-62
2023/09/29 05:35:46;;;;;;;22.65;10.40;;;;;;;17.85;100.00;99021.59;5160212;27;20077;-63
2023/09/29 05:38:12;;;;;;;17.75;10.18;;;;;;;18.27;100.00;99040.81;5160523;27;20043;-63
2023/09/29 05:40:39;;;;;;;17.23;10.43;;;;;;;18.33;100.00;99078.00;5160122;27;20055;-63
2023/09/29 05:43:07;;;;;;;22.73;9.88;;;;;;;18.64;100.00;99095.34;5160217;27;20138;-59
2023/09/29 05:45:33;;;;;;;16.38;9.98;;;;;;;18.81;100.00;99121.28;5160176;27;20047;-62
2023/09/29 05:47:59;;;;;;;15.95;9.98;;;;;;;19.07;100.00;99136.34;5159869;27;20130;-63
2023/09/29 05:50:24;;;;;;;21.48;14.50;;;;;;;19.31;100.00;99189.91;5160217;27;20146;-63
2023/09/29 05:52:50;;;;;;;15.98;9.90;;;;;;;19.64;100.00;99229.88;5159997;27;20062;-62
2023/09/29 05:55:16;;;;;;;19.58;10.27;;;;;;;19.53;100.00;99234.84;5160203;27;20054;-61
2023/09/29 05:57:43;;;;;;;19.90;10.85;;;;;;;19.68;100.00;99249.28;5159758;27;20085;-63
2023/09/29 06:00:13;;;;;;;18.80;10.73;;;;;;;20.13;100.00;99274.69;5160149;27;20074;-62
2023/09/29 06:02:39;;;;;;;26.20;10.27;;;;;;;20.37;100.00;99339.44;5158881;27;20058;-61
2023/09/29 06:05:05;;;;;;;24.00;10.77;;;;;;;20.59;100.00;99351.00;5160066;27;20146;-62
2023/09/29 06:07:31;;;;;;;16.67;10.07;;;;;;;20.89;100.00;99374.25;5159921;27;20085;-60
2023/09/29 06:09:58;;;;;;;15.73;10.27;;;;;;;20.74;100.00;99384.91;5159457;27;20042;-62
2023/09/29 06:12:24;;;;;;;17.70;10.25;;;;;;;21.21;100.00;99397.88;5159816;27;20141;-61
2023/09/29 06:14:50;;;;;;;31.55;11.35;;;;;;;21.24;100.00;99450.78;5159729;27;20050;-61
2023/09/29 06:17:16;;;;;;;24.77;11.05;;;;;;;21.66;100.00;99464.25;5159965;27;20107;-61
2023/09/29 06:19:43;;;;;;;34.88;13.40;;;;;;;21.71;100.00;99467.31;5159568;27;20154;-60
2023/09/29 06:22:09;;;;;;;29.63;11.60;;;;;;;22.08;100.00;99463.25;5159787;27;20061;-63
2023/09/29 06:24:35;;;;;;;20.67;10.23;;;;;;;22.18;100.00;99472.63;5159302;27;20042;-61
2023/09/29 06:27:01;;;;;;;24.40;11.20;;;;;;;22.04;100.00;99490.47;5159535;27;20082;-60
2023/09/29 06:29:27;;;;;;;28.67;11.18;;;;;;;22.42;100.00;99509.53;5159203;27;20412;-61
2023/09/29 06:31:54;;;;;;;19.33;11.23;;;;;;;22.61;100.00;99507.84;5159678;27;20058;-63
2023/09/29 06:34:20;;;;;;;19.70;11.30;;;;;;;22.53;100.00;99512.84;5158979;27;20081;-61
2023/09/29 06:36:46;;;;;;;23.50;15.25;;;;;;;22.96;100.00;99497.00;5159056;27;20054;-63
2023/09/29 06:39:12;;;;;;;34.08;15.35;;;;;;;22.99;100.00;99529.66;5159251;27;20089;-63
2023/09/29 06:41:38;;;;;;;37.10;16.02;;;;;;;23.23;100.00;99544.97;5159099;27;20055;-60
2023/09/29 06:44:05;;;;;;;19.98;11.15;;;;;;;23.44;100.00;99554.00;5159121;27;20141;-62
2023/09/29 06:46:31;;;;;;;18.33;10.15;;;;;;;23.67;100.00;99544.53;5159013;27;20146;-61
2023/09/29 06:48:58;;;;;;;25.10;15.27;;;;;;;23.95;100.00;99570.91;5159241;27;20042;-61
2023/09/29 06:51:24;;;;;;;20.15;9.85;;;;;;;24.25;100.00;99586.38;5158643;27;20146;-60
2023/09/29 06:53:50;;;;;;;21.60;10.75;;;;;;;24.13;100.00;99604.00;5159205;27;20046;-60
2023/09/29 06:56:16;;;;;;;27.83;11.57;;;;;;;24.10;100.00;99618.88;5158651;27;20459;-61
2023/09/29 06:58:42;;;;;;;27.63;10.73;;;;;;;23.90;100.00;99596.69;5159082;27;20131;-63
2023/09/29 07:01:08;;;;;;;27.45;14.75;;;;;;;24.51;100.00;99601.22;5158770;27;20177;-63
2023/09/29 07:03:34;;;;;;;24.13;14.48;;;;;;;24.55;100.00;99620.72;5159218;27;20129;-63
2023/09/29 07:06:01;;;;;;;25.13;10.70;;;;;;;24.66;100.00;99612.75;5158406;27;20429;-63
2023/09/29 07:08:27;;;;;;;31.70;13.50;;;;;;;24.88;100.00;99618.44;5158805;27;20051;-63
2023/09/29 07:10:53;;;;;;;26.95;11.15;;;;;;;24.58;100.00;99620.59;5158532;27;20093;-63
2023/09/29 07:13:19;;;;;;;30.58;16.20;;;;;;;24.95;100.00;99623.00;5158529;27;20050;-61
2023/09/29 07:15:45;;;;;;;29.23;14.90;;;;;;;25.59;100.00;99624.41;5158723;27;20051;-62
2023/09/29 07:18:12;;;;;;;30.35;15.25;;;;;;;25.38;100.00;99622.34;5158202;27;20042;-63
2023/09/29 07:20:38;;;;;;;23.10;14.38;;;;;;;25.10;100.00;99635.34;5158722;27;20082;-63
2023/09/29 07:23:08;;;;;;;28.42;15.40;;;;;;;25.34;100.00;99642.13;5158266;27;20058;-64
2023/09/29 07:25:35;;;;;;;29.80;14.52;;;;;;;25.35;100.00;99640.88;5158667;27;20065;-63
2023/09/29 07:28:01;;;;;;;35.90;16.35;;;;;;;25.41;100.00;99631.88;5158277;27;20476;-63
2023/09/29 07:30:27;;;;;;;26.15;16.30;;;;;;;25.56;100.00;99616.13;5158688;27;20051;-62
2023/09/29 07:32:53;;;;;;;35.80;18.88;;;;;;;25.30;100.00;99638.66;5158360;27;20092;-62
2023/09/29 07:35:19;;;;;;;37.38;18.35;;;;;;;25.48;100.00;99637.25;5158411;27;20127;-60
2023/09/29 07:37:45;;;;;;;31.85;16.70;;;;;;;25.10;100.00;99636.09;5158122;27;20049;-60
2023/09/29 07:40:12;;;;;;;37.08;18.10;;;;;;;25.78;100.00;99639.34;5158085;27;20042;-60
2023/09/29 07:42:38;;;;;;;40.60;17.42;;;;;;;25.87;100.00;99644.28;5157911;27;20122;-61
2023/09/29 07:45:05;;;;;;;33.30;16.05;;;;;;;26.16;100.00;99640.41;5157717;27;20066;-62
2023/09/29 07:47:31;;;;;;;36.70;18.17;;;;;;;26.33;100.00;99638.91;5158279;27;20093;-61
2023/09/29 07:49:57;;;;;;;35.92;16.40;;;;;;;26.65;100.00;99648.13;5157854;27;20050;-62
2023/09/29 07:52:27;;;;;;;31.17;17.33;;;;;;;26.84;98.08;99651.78;5158187;27;20082;-63
2023/09/29 07:54:53;;;;;;;31.00;16.70;;;;;;;25.83;100.00;99648.47;5157973;27;20050;-63
2023/09/29 07:57:20;;;;;;;40.65;17.55;;;;;;;26.00;100.00;99649.81;5158380;27;20054;-61
2023/09/29 07:59:46;;;;;;;37.47;17.33;;;;;;;26.62;100.00;99647.00;5157861;27;20151;-62
2023/09/29 08:02:12;;;;;;;41.45;18.83;;;;;;;26.82;100.00;99640.97;5158156;27;20408;-60
2023/09/29 08:04:38;;;;;;;41.65;19.02;;;;;;;26.59;100.00;99633.91;5157774;27;20428;-60
2023/09/29 08:07:04;;;;;;;31.45;16.73;;;;;;;25.86;100.00;99634.28;5157877;27;20047;-60
2023/09/29 08:09:29;;;;;;;36.90;17.77;;;;;;;27.09;100.00;99637.47;5158032;27;20085;-62
2023/09/29 08:11:57;;;;;;;30.45;15.63;;;;;;;27.17;98.93;99638.75;5157619;27;20104;-63
2023/09/29 08:14:23;;;;;;;27.60;13.07;;;;;;;26.61;100.00;99642.63;5157754;27;20053;-62
2023/09/29 08:16:49;;;;;;;27.35;11.55;;;;;;;26.88;98.46;99641.16;5157739;27;20111;-62
2023/09/29 08:19:15;;;;;;;25.80;10.80;;;;;;;27.11;95.31;99642.63;5157724;27;20519;-62
2023/09/29 08:21:41;;;;;;;24.50;11.85;;;;;;;27.45;96.24;99641.56;5157535;27;20047;-64
2023/09/29 08:24:08;;;;;;;28.08;12.00;;;;;;;27.45;100.00;99642.34;5157787;27;20085;-62
2023/09/29 08:26:34;;;;;;;26.30;11.77;;;;;;;26.87;95.82;99651.63;5159840;27;20062;-62
2023/09/29 08:29:00;;;;;;;25.17;10.98;;;;;;;27.44;93.27;99648.47;5161687;27;20051;-61
2023/09/29 08:31:27;;;;;;;23.67;11.38;;;;;;;27.95;90.92;99647.03;5160983;27;20049;-62
2023/09/29 08:33:53;;;;;;;29.52;11.30;;;;;;;28.03;88.05;99649.06;5161428;27;20285;-64
2023/09/29 08:36:19;;;;;;;29.52;10.95;;;;;;;28.06;89.19;99645.28;5161067;27;20472;-61
2023/09/29 08:38:45;;;;;;;29.30;13.07;;;;;;;27.82;96.29;99641.56;5161203;27;20141;-62
2023/09/29 08:41:12;;;;;;;30.83;14.10;;;;;;;27.62;100.00;99637.19;5161169;27;20043;-61
2023/09/29 08:43:40;;;;;;;27.08;13.55;;;;;;;27.52;92.58;99643.28;5160822;27;20431;-62
2023/09/29 08:46:09;;;;;;;28.42;12.20;;;;;;;27.33;100.00;99629.22;5161184;27;20062;-61
2023/09/29 08:48:36;;;;;;;23.63;12.32;;;;;;;28.00;98.15;99632.31;5160913;27;20058;-62
2023/09/29 08:51:03;;;;;;;33.03;15.38;;;;;;;28.00;92.11;99649.22;5161171;27;20137;-62
2023/09/29 08:53:32;;;;;;;21.38;11.65;;;;;;;27.28;90.94;99643.13;5160857;27;20123;-62
2023/09/29 08:56:04;;;;;;;26.75;11.23;;;;;;;27.61;91.83;99640.47;5161143;27;20047;-62
2023/09/29 08:58:32;;;;;;;24.88;12.70;;;;;;;28.06;92.80;99634.03;5160636;27;20057;-62
2023/09/29 09:00:58;;;;;;;29.30;11.98;;;;;;;28.33;94.76;99626.72;5160504;27;20380;-61
2023/09/29 09:03:24;;;;;;;17.23;10.18;;;;;;;28.09;92.06;99633.06;5160839;27;20047;-61
2023/09/29 09:05:53;;;;;;;22.73;10.05;;;;;;;27.90;87.11;99642.81;5160690;27;20054;-60
2023/09/29 09:08:19;;;;;;;20.65;10.70;;;;;;;27.74;91.68;99631.84;5160887;27;20046;-61
2023/09/29 09:10:45;;;;;;;17.30;10.18;;;;;;;27.36;89.20;99642.38;5160469;27;20412;-60
2023/09/29 09:13:11;;;;;;;19.45;10.45;;;;;;;26.37;98.81;99633.94;5160956;27;20050;-60
2023/09/29 09:15:37;;;;;;;19.95;10.02;;;;;;;27.51;90.66;99625.63;5160586;27;20082;-61
2023/09/29 09:18:04;;;;;;;26.73;11.52;;;;;;;27.43;94.74;99627.19;5160795;27;20047;-60
2023/09/29 09:20:30;;;;;;;25.33;11.63;;;;;;;28.02;92.24;99621.34;5160397;27;20058;-61
2023/09/29 09:22:58;;;;;;;22.73;10.68;;;;;;;26.94;94.54;99619.59;5160865;27;20050;-60
2023/09/29 09:25:31;;;;;;;19.05;11.20;;;;;;;27.27;93.87;99627.50;5160201;27;20043;-61
2023/09/29 09:27:57;;;;;;;21.95;11.30;;;;;;;27.40;96.18;99617.66;5160260;27;20404;-61
2023/09/29 09:30:24;;;;;;;21.60;11.52;;;;;;;27.40;95.66;99619.69;5160249;27;20138;-62
2023/09/29 09:32:50;;;;;;;23.77;11.27;;;;;;;27.53;95.65;99620.31;5160616;27;20046;-61
2023/09/29 09:35:23;;;;;;;22.98;11.13;;;;;;;27.97;91.65;99614.31;5160547;27;20057;-59
2023/09/29 09:37:51;;;;;;;21.98;9.88;;;;;;;28.32;93.41;99616.69;5158970;27;20050;-60
2023/09/29 09:40:19;;;;;;;17.38;8.07;;;;;;;26.57;91.97;99622.31;5160534;27;20114;-62
2023/09/29 09:42:46;;;;;;;16.17;8.35;;;;;;;27.13;93.51;99612.78;5160105;27;20047;-59
2023/09/29 09:45:13;;;;;;;16.98;8.63;;;;;;;28.04;90.13;99616.00;5160253;27;20046;-62
2023/09/29 09:47:40;;;;;;;23.77;11.18;;;;;;;28.37;87.54;99613.25;5159928;27;20046;-61
2023/09/29 09:50:11;;;;;;;22.55;10.10;;;;;;;27.89;90.31;99616.69;5160435;27;20082;-61
2023/09/29 09:52:39;;;;;;;23.77;11.25;;;;;;;26.92;89.53;99617.25;5159950;27;20050;-62
2023/09/29 09:55:11;;;;;;;15.55;9.60;;;;;;;26.98;89.19;99623.03;5160167;27;20081;-63
2023/09/29 09:57:41;;;;;;;15.87;8.67;;;;;;;27.79;86.41;99619.97;5160116;27;20405;-61
2023/09/29 10:00:10;;;;;;;14.13;7.40;;;;;;;27.31;90.50;99616.84;5159970;27;20047;-59
2023/09/29 10:02:39;;;;;;;10.18;7.47;;;;;;;26.73;96.67;99605.19;5159888;27;20081;-61
2023/09/29 10:05:12;;;;;;;14.77;11.02;;;;;;;26.08;100.00;99606.16;5159127;27;20070;-61
2023/09/29 10:07:44;;;;;;;16.55;9.30;;;;;;;27.41;88.30;99615.59;5159573;27;20059;-61
2023/09/29 10:10:10;;;;;;;18.73;10.23;;;;;;;26.94;92.41;99609.13;5153143;27;20394;-61
2023/09/29 10:12:36;;;;;;;17.98;10.30;;;;;;;26.57;93.51;99613.91;5147364;27;20053;-62
2023/09/29 10:15:13;;;;;;;13.30;9.93;;;;;;;27.39;89.64;99606.84;5157800;27;20050;-61
2023/09/29 10:17:39;;;;;;;12.60;8.38;;;;;;;26.52;89.81;99617.28;5143136;27;20184;-60
2023/09/29 10:20:19;;;;;;;18.98;8.35;;;;;;;27.31;89.23;99609.19;5153173;27;20055;-61
2023/09/29 10:22:46;;;;;;;18.15;7.80;;;;;;;27.72;87.93;99600.56;5138502;28;20441;-62
2023/09/29 10:25:19;;;;;;;15.80;8.02;;;;;;;26.92;89.26;99608.03;5138412;28;20058;-60
2023/09/29 10:27:49;;;;;;;20.73;9.05;;;;;;;26.59;92.82;99607.78;5138088;28;20047;-61
2023/09/29 10:30:19;;;;;;;21.67;10.70;;;;;;;27.22;90.48;99595.09;5140115;27;20070;-61
2023/09/29 10:32:46;;;;;;;14.18;9.63;;;;;;;26.82;90.55;99598.78;5159064;27;20129;-61
2023/09/29 10:35:19;;;;;;;21.60;10.48;;;;;;;27.47;90.73;99594.03;5158416;27;20138;-62
2023/09/29 10:37:49;;;;;;;18.88;9.75;;;;;;;27.70;94.79;99589.78;5143864;27;20055;-63
2023/09/29 10:40:22;;;;;;;17.35;8.32;;;;;;;26.62;95.17;99575.94;5154084;27;20074;-60
2023/09/29 10:42:54;;;;;;;16.63;9.07;;;;;;;27.45;91.55;99585.25;5157755;27;20133;-61
2023/09/29 10:45:36;;;;;;;18.27;8.43;;;;;;;27.61;92.98;99587.75;5158383;27;20053;-59
2023/09/29 10:48:04;;;;;;;16.67;8.57;;;;;;;27.31;94.74;99577.44;5152283;27;20046;-61
2023/09/29 10:50:30;;;;;;;18.45;9.93;;;;;;;26.15;99.55;99577.78;5158558;27;20107;-62
2023/09/29 10:52:56;;;;;;;16.52;9.23;;;;;;;26.23;100.00;99567.84;5158865;27;20046;-61
2023/09/29 10:55:22;;;;;;;16.52;8.50;;;;;;;26.26;100.00;99564.09;5158847;27;20047;-62
2023/09/29 10:57:49;;;;;;;20.95;8.70;;;;;;;26.96;97.74;99563.66;5158711;27;20138;-60
2023/09/29 11:00:16;;;;;;;24.42;8.18;;;;;;;27.10;96.22;99565.84;5158932;27;20127;-62
2023/09/29 11:02:44;;;;;;;19.35;7.95;;;;;;;26.44;100.00;99554.94;5158951;27;20055;-60
2023/09/29 11:05:11;;;;;;;17.73;8.05;;;;;;;25.35;100.00;99553.09;5158738;27;20323;-59
2023/09/29 11:07:48;;;;;;;15.75;8.18;;;;;;;26.36;100.00;99542.44;5158656;27;20077;-60